sensor_id;sensor_type;location;lat;lon;timestamp;pressure;altitude;pressure_sealevel;temperature;humidity
79589;BME280;69067;51.930;4.492;2023-04-15T00:00:06;100741.03;;;19.65;42.91
79589;BME280;69067;51.930;4.492;2023-04-15T00:02:32;100747.66;;;19.63;42.19
79589;BME280;69067;51.930;4.492;2023-04-15T00:04:58;100739.72;;;19.61;43.77
79589;BME280;69067;51.930;4.492;2023-04-15T00:07:24;100748.50;;;19.63;42.85
79589;BME280;69067;51.930;4.492;2023-04-15T00:09:49;100745.97;;;19.62;42.85
79589;BME280;69067;51.930;4.492;2023-04-15T00:12:19;100744.28;;;19.61;43.42
79589;BME280;69067;51.930;4.492;2023-04-15T00:14:46;100739.91;;;19.60;43.39
79589;BME280;69067;51.930;4.492;2023-04-15T00:17:12;100749.50;;;19.62;42.35
79589;BME280;69067;51.930;4.492;2023-04-15T00:19:37;100734.84;;;19.57;43.77
79589;BME280;69067;51.930;4.492;2023-04-15T00:22:03;100745.50;;;19.58;42.95
79589;BME280;69067;51.930;4.492;2023-04-15T00:24:29;100742.16;;;19.56;43.28
79589;BME280;69067;51.930;4.492;2023-04-15T00:26:56;100745.03;;;19.55;43.70
79589;BME280;69067;51.930;4.492;2023-04-15T00:29:22;100753.75;;;19.57;43.56
79589;BME280;69067;51.930;4.492;2023-04-15T00:31:48;100751.63;;;19.52;42.80
79589;BME280;69067;51.930;4.492;2023-04-15T00:34:14;100757.03;;;19.52;42.85
79589;BME280;69067;51.930;4.492;2023-04-15T00:36:40;100755.84;;;19.55;42.95
79589;BME280;69067;51.930;4.492;2023-04-15T00:39:06;100762.91;;;19.56;43.46
79589;BME280;69067;51.930;4.492;2023-04-15T00:41:32;100755.84;;;19.55;42.59
79589;BME280;69067;51.930;4.492;2023-04-15T00:43:59;100752.66;;;19.51;43.50
79589;BME280;69067;51.930;4.492;2023-04-15T00:46:28;100750.78;;;19.52;43.93
79589;BME280;69067;51.930;4.492;2023-04-15T00:48:55;100753.31;;;19.53;43.01
79589;BME280;69067;51.930;4.492;2023-04-15T00:51:21;100752.47;;;19.53;44.33
79589;BME280;69067;51.930;4.492;2023-04-15T00:53:47;100746.78;;;19.48;43.71
79589;BME280;69067;51.930;4.492;2023-04-15T00:56:13;100750.97;;;19.50;44.40
79589;BME280;69067;51.930;4.492;2023-04-15T00:58:39;100753.03;;;19.48;43.49
79589;BME280;69067;51.930;4.492;2023-04-15T01:01:06;100741.72;;;19.45;43.51
79589;BME280;69067;51.930;4.492;2023-04-15T01:03:32;100752.84;;;19.50;43.47
79589;BME280;69067;51.930;4.492;2023-04-15T01:05:59;100745.25;;;19.45;43.74
79589;BME280;69067;51.930;4.492;2023-04-15T01:08:28;100746.78;;;19.48;44.46
79589;BME280;69067;51.930;4.492;2023-04-15T01:10:56;100755.72;;;19.48;43.55
79589;BME280;69067;51.930;4.492;2023-04-15T01:13:23;100748.13;;;19.44;43.33
79589;BME280;69067;51.930;4.492;2023-04-15T01:15:50;100748.13;;;19.44;43.19
79589;BME280;69067;51.930;4.492;2023-04-15T01:18:17;100746.47;;;19.43;44.43
79589;BME280;69067;51.930;4.492;2023-04-15T01:20:43;100753.53;;;19.44;43.70
79589;BME280;69067;51.930;4.492;2023-04-15T01:23:09;100753.72;;;19.42;43.52
79589;BME280;69067;51.930;4.492;2023-04-15T01:25:35;100758.59;;;19.47;43.22
79589;BME280;69067;51.930;4.492;2023-04-15T01:28:01;100765.00;;;19.46;44.10
79589;BME280;69067;51.930;4.492;2023-04-15T01:30:27;100754.75;;;19.41;43.56
79589;BME280;69067;51.930;4.492;2023-04-15T01:32:53;100747.50;;;19.42;44.46
79589;BME280;69067;51.930;4.492;2023-04-15T01:35:19;100749.34;;;19.41;44.76
79589;BME280;69067;51.930;4.492;2023-04-15T01:37:46;100755.22;;;19.45;43.43
79589;BME280;69067;51.930;4.492;2023-04-15T01:40:12;100751.66;;;19.44;44.43
79589;BME280;69067;51.930;4.492;2023-04-15T01:42:38;100745.13;;;19.39;43.53
79589;BME280;69067;51.930;4.492;2023-04-15T01:45:04;100744.13;;;19.40;44.19
79589;BME280;69067;51.930;4.492;2023-04-15T01:47:31;100751.22;;;19.41;43.31
79589;BME280;69067;51.930;4.492;2023-04-15T01:49:57;100762.69;;;19.43;43.53
79589;BME280;69067;51.930;4.492;2023-04-15T01:52:23;100752.88;;;19.42;44.62
79589;BME280;69067;51.930;4.492;2023-04-15T01:54:49;100755.94;;;19.39;44.05
79589;BME280;69067;51.930;4.492;2023-04-15T01:57:15;100749.69;;;19.38;44.01
79589;BME280;69067;51.930;4.492;2023-04-15T01:59:41;100756.97;;;19.38;44.61
79589;BME280;69067;51.930;4.492;2023-04-15T02:02:07;100753.91;;;19.41;44.86
79589;BME280;69067;51.930;4.492;2023-04-15T02:04:33;100764.03;;;19.39;45.12
79589;BME280;69067;51.930;4.492;2023-04-15T02:06:59;100761.34;;;19.39;44.59
79589;BME280;69067;51.930;4.492;2023-04-15T02:09:25;100754.25;;;19.38;44.30
79589;BME280;69067;51.930;4.492;2023-04-15T02:11:51;100763.88;;;19.40;44.94
79589;BME280;69067;51.930;4.492;2023-04-15T02:14:18;100766.38;;;19.42;44.63
79589;BME280;69067;51.930;4.492;2023-04-15T02:16:44;100758.19;;;19.35;44.43
79589;BME280;69067;51.930;4.492;2023-04-15T02:19:10;100772.53;;;19.36;44.85
79589;BME280;69067;51.930;4.492;2023-04-15T02:21:35;100763.75;;;19.34;44.11
79589;BME280;69067;51.930;4.492;2023-04-15T02:24:01;100766.06;;;19.37;45.05
79589;BME280;69067;51.930;4.492;2023-04-15T02:26:28;100771.13;;;19.40;44.29
79589;BME280;69067;51.930;4.492;2023-04-15T02:28:57;100765.22;;;19.36;44.43
79589;BME280;69067;51.930;4.492;2023-04-15T02:31:23;100770.47;;;19.38;45.03
79589;BME280;69067;51.930;4.492;2023-04-15T02:33:49;100773.16;;;19.38;45.90
79589;BME280;69067;51.930;4.492;2023-04-15T02:36:15;100782.66;;;19.34;44.92
79589;BME280;69067;51.930;4.492;2023-04-15T02:38:41;100780.81;;;19.34;44.77
79589;BME280;69067;51.930;4.492;2023-04-15T02:41:10;100784.97;;;19.37;45.84
79589;BME280;69067;51.930;4.492;2023-04-15T02:43:36;100778.44;;;19.31;45.59
79589;BME280;69067;51.930;4.492;2023-04-15T02:46:05;100787.38;;;19.32;45.49
79589;BME280;69067;51.930;4.492;2023-04-15T02:48:31;100793.28;;;19.35;44.67
79589;BME280;69067;51.930;4.492;2023-04-15T02:51:16;100795.78;;;19.37;44.16
79589;BME280;69067;51.930;4.492;2023-04-15T02:53:45;100793.63;;;19.32;44.53
79589;BME280;69067;51.930;4.492;2023-04-15T02:56:11;100807.31;;;19.31;45.03
79589;BME280;69067;51.930;4.492;2023-04-15T02:58:38;100803.97;;;19.28;45.02
79589;BME280;69067;51.930;4.492;2023-04-15T03:01:04;100814.38;;;19.32;44.56
79589;BME280;69067;51.930;4.492;2023-04-15T03:03:30;100814.75;;;19.28;44.89
79589;BME280;69067;51.930;4.492;2023-04-15T03:05:55;100808.69;;;19.26;44.87
79589;BME280;69067;51.930;4.492;2023-04-15T03:08:21;100815.22;;;19.32;45.45
79589;BME280;69067;51.930;4.492;2023-04-15T03:10:47;100807.69;;;19.27;45.03
79589;BME280;69067;51.930;4.492;2023-04-15T03:13:13;100814.94;;;19.27;45.30
79589;BME280;69067;51.930;4.492;2023-04-15T03:15:39;100812.25;;;19.27;44.87
79589;BME280;69067;51.930;4.492;2023-04-15T03:18:04;100824.72;;;19.28;45.08
79589;BME280;69067;51.930;4.492;2023-04-15T03:20:30;100822.88;;;19.28;44.67
79589;BME280;69067;51.930;4.492;2023-04-15T03:22:56;100822.38;;;19.25;44.78
79589;BME280;69067;51.930;4.492;2023-04-15T03:25:22;100830.28;;;19.26;45.32
79589;BME280;69067;51.930;4.492;2023-04-15T03:27:47;100832.16;;;19.26;45.07
79589;BME280;69067;51.930;4.492;2023-04-15T03:30:13;100837.56;;;19.26;44.97
79589;BME280;69067;51.930;4.492;2023-04-15T03:32:39;100827.94;;;19.23;45.27
79589;BME280;69067;51.930;4.492;2023-04-15T03:35:05;100830.47;;;19.25;45.57
79589;BME280;69067;51.930;4.492;2023-04-15T03:37:31;100836.25;;;19.22;45.57
79589;BME280;69067;51.930;4.492;2023-04-15T03:39:56;100841.44;;;19.23;45.45
79589;BME280;69067;51.930;4.492;2023-04-15T03:42:22;100839.75;;;19.22;44.42
79589;BME280;69067;51.930;4.492;2023-04-15T03:44:48;100841.66;;;19.22;44.89
79589;BME280;69067;51.930;4.492;2023-04-15T03:47:14;100844.97;;;19.24;44.31
79589;BME280;69067;51.930;4.492;2023-04-15T03:49:40;100852.22;;;19.23;44.33
79589;BME280;69067;51.930;4.492;2023-04-15T03:52:06;100853.63;;;19.19;44.80
79589;BME280;69067;51.930;4.492;2023-04-15T03:54:31;100846.53;;;19.18;45.56
79589;BME280;69067;51.930;4.492;2023-04-15T03:56:57;100858.34;;;19.17;45.91
79589;BME280;69067;51.930;4.492;2023-04-15T03:59:23;100851.28;;;19.16;45.20
79589;BME280;69067;51.930;4.492;2023-04-15T04:01:49;100863.25;;;19.22;44.83
79589;BME280;69067;51.930;4.492;2023-04-15T04:04:15;100871.13;;;19.23;45.70
79589;BME280;69067;51.930;4.492;2023-04-15T04:06:41;100867.28;;;19.18;45.15
79589;BME280;69067;51.930;4.492;2023-04-15T04:09:06;100874.38;;;19.19;44.79
79589;BME280;69067;51.930;4.492;2023-04-15T04:11:33;100876.91;;;19.20;44.20
79589;BME280;69067;51.930;4.492;2023-04-15T04:13:59;100877.91;;;19.19;44.47
79589;BME280;69067;51.930;4.492;2023-04-15T04:16:25;100875.88;;;19.21;45.05
79589;BME280;69067;51.930;4.492;2023-04-15T04:18:50;100880.78;;;19.18;44.74
79589;BME280;69067;51.930;4.492;2023-04-15T04:21:16;100880.13;;;19.16;45.64
79589;BME280;69067;51.930;4.492;2023-04-15T04:23:42;100888.88;;;19.18;44.63
79589;BME280;69067;51.930;4.492;2023-04-15T04:26:08;100883.88;;;19.15;45.41
79589;BME280;69067;51.930;4.492;2023-04-15T04:28:34;100892.59;;;19.17;44.83
79589;BME280;69067;51.930;4.492;2023-04-15T04:31:00;100904.06;;;19.19;45.77
79589;BME280;69067;51.930;4.492;2023-04-15T04:33:26;100898.38;;;19.14;44.84
79589;BME280;69067;51.930;4.492;2023-04-15T04:35:52;100905.94;;;19.18;45.23
79589;BME280;69067;51.930;4.492;2023-04-15T04:38:18;100904.63;;;19.14;44.73
79589;BME280;69067;51.930;4.492;2023-04-15T04:40:44;100915.22;;;19.16;44.71
79589;BME280;69067;51.930;4.492;2023-04-15T04:43:10;100916.25;;;19.15;45.22
79589;BME280;69067;51.930;4.492;2023-04-15T04:45:35;100926.84;;;19.16;45.31
79589;BME280;69067;51.930;4.492;2023-04-15T04:48:01;100929.25;;;19.11;44.90
79589;BME280;69067;51.930;4.492;2023-04-15T04:50:31;100942.41;;;19.14;45.11
79589;BME280;69067;51.930;4.492;2023-04-15T04:52:57;100931.94;;;19.11;45.92
79589;BME280;69067;51.930;4.492;2023-04-15T04:55:23;100941.91;;;19.11;45.04
79589;BME280;69067;51.930;4.492;2023-04-15T04:57:48;100939.38;;;19.09;45.40
79589;BME280;69067;51.930;4.492;2023-04-15T05:00:16;100942.75;;;19.11;45.53
79589;BME280;69067;51.930;4.492;2023-04-15T05:02:42;100952.22;;;19.07;45.69
79589;BME280;69067;51.930;4.492;2023-04-15T05:05:09;100967.72;;;19.13;44.35
79589;BME280;69067;51.930;4.492;2023-04-15T05:07:36;100962.66;;;19.10;46.11
79589;BME280;69067;51.930;4.492;2023-04-15T05:10:04;100965.34;;;19.10;44.66
79589;BME280;69067;51.930;4.492;2023-04-15T05:12:31;100974.13;;;19.12;44.75
79589;BME280;69067;51.930;4.492;2023-04-15T05:14:57;100973.59;;;19.09;45.06
79589;BME280;69067;51.930;4.492;2023-04-15T05:17:23;100988.63;;;19.11;45.63
79589;BME280;69067;51.930;4.492;2023-04-15T05:19:49;100986.78;;;19.12;44.67
79589;BME280;69067;51.930;4.492;2023-04-15T05:22:14;100998.41;;;19.12;44.76
79589;BME280;69067;51.930;4.492;2023-04-15T05:24:40;100999.41;;;19.11;45.28
79589;BME280;69067;51.930;4.492;2023-04-15T05:27:06;101003.81;;;19.12;44.63
79589;BME280;69067;51.930;4.492;2023-04-15T05:29:33;101007.50;;;19.11;45.29
79589;BME280;69067;51.930;4.492;2023-04-15T05:31:59;101013.09;;;19.10;46.29
79589;BME280;69067;51.930;4.492;2023-04-15T05:34:25;101016.16;;;19.07;45.17
79589;BME280;69067;51.930;4.492;2023-04-15T05:36:51;101024.88;;;19.09;45.39
79589;BME280;69067;51.930;4.492;2023-04-15T05:39:17;101028.44;;;19.09;45.67
79589;BME280;69067;51.930;4.492;2023-04-15T05:41:43;101024.06;;;19.08;45.63
79589;BME280;69067;51.930;4.492;2023-04-15T05:44:09;101031.13;;;19.09;45.33
79589;BME280;69067;51.930;4.492;2023-04-15T05:46:35;101030.81;;;19.04;44.97
79589;BME280;69067;51.930;4.492;2023-04-15T05:49:00;101032.50;;;19.05;45.19
79589;BME280;69067;51.930;4.492;2023-04-15T05:51:26;101051.06;;;19.08;44.88
79589;BME280;69067;51.930;4.492;2023-04-15T05:53:52;101059.31;;;19.07;45.36
79589;BME280;69067;51.930;4.492;2023-04-15T05:56:18;101066.41;;;19.08;45.10
79589;BME280;69067;51.930;4.492;2023-04-15T05:58:45;101064.22;;;19.03;45.64
79589;BME280;69067;51.930;4.492;2023-04-15T06:01:10;101068.28;;;19.07;45.87
79589;BME280;69067;51.930;4.492;2023-04-15T06:03:37;101074.84;;;19.05;45.24
79589;BME280;69067;51.930;4.492;2023-04-15T06:06:03;101078.56;;;19.04;44.67
79589;BME280;69067;51.930;4.492;2023-04-15T06:08:29;101086.66;;;19.04;45.58
79589;BME280;69067;51.930;4.492;2023-04-15T06:10:55;101094.91;;;19.02;45.97
79589;BME280;69067;51.930;4.492;2023-04-15T06:13:21;101105.38;;;19.05;45.19
79589;BME280;69067;51.930;4.492;2023-04-15T06:15:47;101102.16;;;19.02;46.36
79589;BME280;69067;51.930;4.492;2023-04-15T06:18:12;101105.69;;;19.02;45.37
79589;BME280;69067;51.930;4.492;2023-04-15T06:20:38;101111.94;;;19.03;45.36
79589;BME280;69067;51.930;4.492;2023-04-15T06:23:04;101114.84;;;19.01;45.90
79589;BME280;69067;51.930;4.492;2023-04-15T06:25:30;101120.88;;;19.03;45.76
79589;BME280;69067;51.930;4.492;2023-04-15T06:27:56;101123.09;;;19.00;45.33
79589;BME280;69067;51.930;4.492;2023-04-15T06:30:22;101130.19;;;19.01;45.52
79589;BME280;69067;51.930;4.492;2023-04-15T06:32:48;101130.69;;;19.04;44.73
79589;BME280;69067;51.930;4.492;2023-04-15T06:35:13;101144.34;;;19.03;45.34
79589;BME280;69067;51.930;4.492;2023-04-15T06:37:40;101151.41;;;19.04;45.71
79589;BME280;69067;51.930;4.492;2023-04-15T06:40:07;101150.94;;;19.00;45.86
79589;BME280;69067;51.930;4.492;2023-04-15T06:42:34;101157.66;;;19.04;45.31
79589;BME280;69067;51.930;4.492;2023-04-15T06:45:01;101161.38;;;19.03;45.99
79589;BME280;69067;51.930;4.492;2023-04-15T06:47:27;101164.91;;;19.04;45.04
79589;BME280;69067;51.930;4.492;2023-04-15T06:49:53;101172.16;;;19.03;46.06
79589;BME280;69067;51.930;4.492;2023-04-15T06:52:19;101174.03;;;19.03;45.65
79589;BME280;69067;51.930;4.492;2023-04-15T06:54:44;101166.44;;;18.98;45.18
79589;BME280;69067;51.930;4.492;2023-04-15T06:57:10;101180.25;;;19.03;45.80
79589;BME280;69067;51.930;4.492;2023-04-15T06:59:36;101175.03;;;19.02;46.54
79589;BME280;69067;51.930;4.492;2023-04-15T07:02:02;101176.72;;;19.03;45.36
79589;BME280;69067;51.930;4.492;2023-04-15T07:04:28;101185.81;;;19.02;46.24
79589;BME280;69067;51.930;4.492;2023-04-15T07:06:53;101188.03;;;18.98;46.31
79589;BME280;69067;51.930;4.492;2023-04-15T07:09:23;101186.88;;;19.01;45.12
79589;BME280;69067;51.930;4.492;2023-04-15T07:11:49;101187.03;;;18.99;45.65
79589;BME280;69067;51.930;4.492;2023-04-15T07:14:16;101185.16;;;19.00;45.86
79589;BME280;69067;51.930;4.492;2023-04-15T07:16:41;101192.06;;;19.02;44.95
79589;BME280;69067;51.930;4.492;2023-04-15T07:19:07;101204.56;;;19.03;46.34
79589;BME280;69067;51.930;4.492;2023-04-15T07:21:33;101194.28;;;18.99;44.94
79589;BME280;69067;51.930;4.492;2023-04-15T07:23:59;101197.13;;;18.97;45.31
79589;BME280;69067;51.930;4.492;2023-04-15T07:26:25;101202.22;;;19.00;45.97
79589;BME280;69067;51.930;4.492;2023-04-15T07:28:50;101210.31;;;19.00;46.37
79589;BME280;69067;51.930;4.492;2023-04-15T07:31:16;101223.81;;;19.00;44.93
79589;BME280;69067;51.930;4.492;2023-04-15T07:33:42;101214.16;;;18.98;46.34
79589;BME280;69067;51.930;4.492;2023-04-15T07:36:08;101221.25;;;18.99;45.34
79589;BME280;69067;51.930;4.492;2023-04-15T07:38:34;101225.81;;;18.98;45.91
79589;BME280;69067;51.930;4.492;2023-04-15T07:41:00;101231.91;;;19.00;45.67
79589;BME280;69067;51.930;4.492;2023-04-15T07:43:26;101228.50;;;18.98;45.17
79589;BME280;69067;51.930;4.492;2023-04-15T07:45:52;101235.75;;;18.98;45.83
79589;BME280;69067;51.930;4.492;2023-04-15T07:48:18;101238.31;;;18.99;46.24
79589;BME280;69067;51.930;4.492;2023-04-15T07:50:44;101240.84;;;19.01;45.46
79589;BME280;69067;51.930;4.492;2023-04-15T07:53:10;101243.00;;;18.97;46.01
79589;BME280;69067;51.930;4.492;2023-04-15T07:55:35;101243.84;;;18.98;45.79
79589;BME280;69067;51.930;4.492;2023-04-15T07:58:01;101251.78;;;18.99;45.69
79589;BME280;69067;51.930;4.492;2023-04-15T08:00:27;101252.13;;;18.96;46.05
79589;BME280;69067;51.930;4.492;2023-04-15T08:02:53;101259.38;;;18.96;45.80
79589;BME280;69067;51.930;4.492;2023-04-15T08:05:19;101269.69;;;19.00;46.16
79589;BME280;69067;51.930;4.492;2023-04-15T08:07:44;101266.63;;;18.95;46.42
79589;BME280;69067;51.930;4.492;2023-04-15T08:10:11;101288.72;;;18.99;46.61
79589;BME280;69067;51.930;4.492;2023-04-15T08:12:37;101293.97;;;19.00;45.49
79589;BME280;69067;51.930;4.492;2023-04-15T08:15:03;101298.84;;;18.97;45.40
79589;BME280;69067;51.930;4.492;2023-04-15T08:17:29;101297.84;;;18.98;45.99
79589;BME280;69067;51.930;4.492;2023-04-15T08:19:55;101298.69;;;18.98;45.59
79589;BME280;69067;51.930;4.492;2023-04-15T08:22:21;101305.25;;;18.96;44.64
79589;BME280;69067;51.930;4.492;2023-04-15T08:24:47;101314.72;;;19.00;45.61
79589;BME280;69067;51.930;4.492;2023-04-15T08:27:13;101313.88;;;18.99;45.06
79589;BME280;69067;51.930;4.492;2023-04-15T08:29:39;101325.34;;;19.01;45.58
79589;BME280;69067;51.930;4.492;2023-04-15T08:32:05;101326.50;;;18.99;45.56
79589;BME280;69067;51.930;4.492;2023-04-15T08:34:31;101323.13;;;18.97;45.55
79589;BME280;69067;51.930;4.492;2023-04-15T08:36:57;101324.81;;;18.98;45.78
79589;BME280;69067;51.930;4.492;2023-04-15T08:39:22;101329.22;;;18.99;45.20
79589;BME280;69067;51.930;4.492;2023-04-15T08:41:59;101340.16;;;18.97;45.14
79589;BME280;69067;51.930;4.492;2023-04-15T08:44:33;101338.16;;;18.99;44.72
79589;BME280;69067;51.930;4.492;2023-04-15T08:47:00;101348.78;;;19.01;45.26
79589;BME280;69067;51.930;4.492;2023-04-15T08:49:28;101345.25;;;19.00;44.74
79589;BME280;69067;51.930;4.492;2023-04-15T08:51:55;101359.75;;;18.99;45.61
79589;BME280;69067;51.930;4.492;2023-04-15T08:54:23;101362.47;;;19.07;45.71
79589;BME280;69067;51.930;4.492;2023-04-15T08:56:50;101364.50;;;19.13;45.40
79589;BME280;69067;51.930;4.492;2023-04-15T08:59:16;101370.94;;;19.28;44.99
79589;BME280;69067;51.930;4.492;2023-04-15T09:01:43;101378.75;;;19.48;44.54
79589;BME280;69067;51.930;4.492;2023-04-15T09:04:10;101374.97;;;19.33;45.02
79589;BME280;69067;51.930;4.492;2023-04-15T09:06:38;101373.97;;;19.34;44.26
79589;BME280;69067;51.930;4.492;2023-04-15T09:09:04;101377.16;;;19.37;44.51
79589;BME280;69067;51.930;4.492;2023-04-15T09:11:30;101380.22;;;19.34;44.50
79589;BME280;69067;51.930;4.492;2023-04-15T09:13:56;101383.56;;;19.36;43.31
79589;BME280;69067;51.930;4.492;2023-04-15T09:16:22;101387.66;;;19.40;43.53
79589;BME280;69067;51.930;4.492;2023-04-15T09:18:48;101396.59;;;19.41;43.60
79589;BME280;69067;51.930;4.492;2023-04-15T09:21:16;101392.34;;;19.38;43.68
79589;BME280;69067;51.930;4.492;2023-04-15T09:23:57;101400.63;;;19.37;44.52
79589;BME280;69067;51.930;4.492;2023-04-15T09:26:40;101400.63;;;19.37;43.80
79589;BME280;69067;51.930;4.492;2023-04-15T09:29:09;101415.16;;;19.36;43.34
79589;BME280;69067;51.930;4.492;2023-04-15T09:31:38;101414.63;;;19.32;43.85
79589;BME280;69067;51.930;4.492;2023-04-15T09:34:05;101423.59;;;19.33;44.52
79589;BME280;69067;51.930;4.492;2023-04-15T09:36:51;101430.00;;;19.32;43.54
79589;BME280;69067;51.930;4.492;2023-04-15T09:39:19;101426.59;;;19.29;43.52
79589;BME280;69067;51.930;4.492;2023-04-15T09:41:45;101429.13;;;19.31;44.38
79589;BME280;69067;51.930;4.492;2023-04-15T09:44:25;101425.94;;;19.27;44.18
79589;BME280;69067;51.930;4.492;2023-04-15T09:46:51;101430.66;;;19.25;43.36
79589;BME280;69067;51.930;4.492;2023-04-15T09:49:17;101427.25;;;19.23;44.53
79589;BME280;69067;51.930;4.492;2023-04-15T09:51:43;101447.69;;;19.26;43.75
79589;BME280;69067;51.930;4.492;2023-04-15T09:54:09;101432.16;;;19.20;43.50
79589;BME280;69067;51.930;4.492;2023-04-15T09:56:37;101450.56;;;19.24;43.85
79589;BME280;69067;51.930;4.492;2023-04-15T09:59:06;101450.56;;;19.24;43.62
79589;BME280;69067;51.930;4.492;2023-04-15T10:01:33;101452.41;;;19.24;44.41
79589;BME280;69067;51.930;4.492;2023-04-15T10:04:04;101453.59;;;19.21;44.23
79589;BME280;69067;51.930;4.492;2023-04-15T10:06:30;101455.47;;;19.21;44.32
79589;BME280;69067;51.930;4.492;2023-04-15T10:08:57;101460.84;;;19.21;44.81
79589;BME280;69067;51.930;4.492;2023-04-15T10:11:25;101459.47;;;19.17;43.69
79589;BME280;69067;51.930;4.492;2023-04-15T10:13:55;101469.44;;;19.16;44.99
79589;BME280;69067;51.930;4.492;2023-04-15T10:16:26;101459.63;;;19.15;43.92
79589;BME280;69067;51.930;4.492;2023-04-15T10:18:56;101468.59;;;19.16;44.79
79589;BME280;69067;51.930;4.492;2023-04-15T10:21:27;101470.63;;;19.14;43.86
79589;BME280;69067;51.930;4.492;2023-04-15T10:23:53;101464.38;;;19.13;43.82
79589;BME280;69067;51.930;4.492;2023-04-15T10:26:19;101473.47;;;19.12;44.31
79589;BME280;69067;51.930;4.492;2023-04-15T10:28:45;101470.94;;;19.11;43.31
79589;BME280;69067;51.930;4.492;2023-04-15T10:31:15;101477.19;;;19.11;43.49
79589;BME280;69067;51.930;4.492;2023-04-15T10:33:43;101471.09;;;19.09;43.16
79589;BME280;69067;51.930;4.492;2023-04-15T10:36:10;101475.81;;;19.07;43.61
79589;BME280;69067;51.930;4.492;2023-04-15T10:38:42;101489.31;;;19.07;44.23
79589;BME280;69067;51.930;4.492;2023-04-15T10:41:13;101491.69;;;19.10;44.44
79589;BME280;69067;51.930;4.492;2023-04-15T10:46:38;101484.59;;;19.09;42.82
79589;BME280;69067;51.930;4.492;2023-04-15T10:51:43;101489.31;;;19.07;43.39
79589;BME280;69067;51.930;4.492;2023-04-15T10:57:05;101494.03;;;19.05;44.50
79589;BME280;69067;51.930;4.492;2023-04-15T11:08:09;101488.94;;;19.02;43.05
79589;BME280;69067;51.930;4.492;2023-04-15T11:13:04;101505.69;;;19.06;43.42
79589;BME280;69067;51.930;4.492;2023-04-15T11:15:44;101502.28;;;19.04;43.65
79589;BME280;69067;51.930;4.492;2023-04-15T11:18:14;101514.63;;;19.06;44.04
79589;BME280;69067;51.930;4.492;2023-04-15T11:20:46;101507.00;;;19.02;43.82
79589;BME280;69067;51.930;4.492;2023-04-15T11:23:39;101515.63;;;19.05;44.27
79589;BME280;69067;51.930;4.492;2023-04-15T11:26:09;101517.47;;;19.05;44.09
79589;BME280;69067;51.930;4.492;2023-04-15T11:28:38;101524.72;;;19.04;44.45
79589;BME280;69067;51.930;4.492;2023-04-15T11:31:12;101527.75;;;19.01;44.12
79589;BME280;69067;51.930;4.492;2023-04-15T11:33:45;101541.63;;;19.06;44.58
79589;BME280;69067;51.930;4.492;2023-04-15T11:36:19;101537.91;;;19.07;43.72
79589;BME280;69067;51.930;4.492;2023-04-15T11:38:47;101542.78;;;19.04;44.48
79589;BME280;69067;51.930;4.492;2023-04-15T11:41:13;101531.47;;;19.00;43.89
79589;BME280;69067;51.930;4.492;2023-04-15T11:43:40;101535.66;;;19.03;43.66
79589;BME280;69067;51.930;4.492;2023-04-15T11:46:07;101541.06;;;19.03;43.43
79589;BME280;69067;51.930;4.492;2023-04-15T11:48:35;101527.56;;;19.03;44.07
79589;BME280;69067;51.930;4.492;2023-04-15T11:51:03;101548.31;;;19.02;44.82
79589;BME280;69067;51.930;4.492;2023-04-15T11:53:50;101548.00;;;19.05;44.26
79589;BME280;69067;51.930;4.492;2023-04-15T11:56:22;101550.72;;;19.05;43.42
79589;BME280;69067;51.930;4.492;2023-04-15T11:58:54;101550.88;;;19.04;43.26
79589;BME280;69067;51.930;4.492;2023-04-15T12:01:34;101548.31;;;19.02;43.60
79589;BME280;69067;51.930;4.492;2023-04-15T12:04:01;101558.81;;;19.05;44.38
79589;BME280;69067;51.930;4.492;2023-04-15T12:06:32;101566.22;;;19.03;42.96
79589;BME280;69067;51.930;4.492;2023-04-15T12:09:17;101573.00;;;19.07;44.04
79589;BME280;69067;51.930;4.492;2023-04-15T12:11:46;101571.59;;;19.03;43.63
79589;BME280;69067;51.930;4.492;2023-04-15T12:14:32;101567.41;;;19.01;42.95
79589;BME280;69067;51.930;4.492;2023-04-15T12:17:01;101574.16;;;19.05;43.20
79589;BME280;69067;51.930;4.492;2023-04-15T12:19:36;101577.69;;;19.05;44.16
79589;BME280;69067;51.930;4.492;2023-04-15T12:24:32;101567.91;;;19.04;43.92
79589;BME280;69067;51.930;4.492;2023-04-15T12:27:17;101579.72;;;19.03;44.17
79589;BME280;69067;51.930;4.492;2023-04-15T12:29:43;101584.09;;;19.04;43.35
79589;BME280;69067;51.930;4.492;2023-04-15T12:32:14;101590.34;;;19.05;43.53
79589;BME280;69067;51.930;4.492;2023-04-15T12:34:48;101591.50;;;19.02;43.64
79589;BME280;69067;51.930;4.492;2023-04-15T12:37:15;101602.16;;;19.04;44.00
79589;BME280;69067;51.930;4.492;2023-04-15T12:39:43;101603.69;;;19.06;44.04
79589;BME280;69067;51.930;4.492;2023-04-15T12:42:11;101596.06;;;19.02;44.10
79589;BME280;69067;51.930;4.492;2023-04-15T12:44:38;101600.63;;;19.01;43.93
79589;BME280;69067;51.930;4.492;2023-04-15T12:47:04;101605.00;;;19.02;43.71
79589;BME280;69067;51.930;4.492;2023-04-15T12:49:32;101606.53;;;19.05;43.66
79589;BME280;69067;51.930;4.492;2023-04-15T12:51:59;101618.19;;;19.05;43.56
79589;BME280;69067;51.930;4.492;2023-04-15T12:54:27;101611.94;;;19.05;42.94
79589;BME280;69067;51.930;4.492;2023-04-15T12:56:54;101618.34;;;19.04;42.77
79589;BME280;69067;51.930;4.492;2023-04-15T12:59:20;101627.13;;;19.06;43.83
79589;BME280;69067;51.930;4.492;2023-04-15T13:01:48;101636.78;;;19.08;43.32
79589;BME280;69067;51.930;4.492;2023-04-15T13:04:15;101644.03;;;19.08;43.29
79589;BME280;69067;51.930;4.492;2023-04-15T13:06:42;101636.38;;;19.03;43.71
79589;BME280;69067;51.930;4.492;2023-04-15T13:09:09;101638.94;;;19.05;43.44
79589;BME280;69067;51.930;4.492;2023-04-15T13:11:35;101642.47;;;19.05;43.11